createdAt,value
2018-03-04T00:01:46.551Z,95.68
2018-03-04T00:04:13.646Z,83.57
2018-03-04T00:06:40.006Z,92.57
2018-03-04T00:09:06.345Z,86.85
2018-03-04T00:11:32.764Z,89.47
2018-03-04T00:13:59.919Z,100.10
2018-03-04T00:16:26.304Z,88.62
2018-03-04T00:18:52.662Z,95.47
2018-03-04T00:21:19.014Z,93.72
2018-03-04T00:23:45.409Z,83.03
2018-03-04T00:26:11.831Z,96.30
2018-03-04T00:28:38.976Z,98.40
2018-03-04T00:31:05.347Z,90.15
2018-03-04T00:33:31.713Z,95.03
2018-03-04T00:35:58.829Z,106.85
2018-03-04T00:38:25.278Z,101.03
2018-03-04T00:40:51.644Z,94.87
2018-03-04T00:43:18.004Z,97.32
2018-03-04T00:45:44.407Z,106.00
2018-03-04T00:48:10.771Z,99.45
2018-03-04T00:50:37.128Z,95.82
2018-03-04T00:53:03.511Z,105.35
2018-03-04T00:55:29.877Z,105.37
2018-03-04T00:57:56.234Z,84.65
2018-03-04T01:00:22.585Z,100.72
2018-03-04T01:02:48.955Z,102.05
2018-03-04T01:05:15.339Z,102.03
2018-03-04T01:07:41.976Z,102.03
2018-03-04T01:10:09.133Z,110.55
2018-03-04T01:12:35.542Z,93.75
2018-03-04T01:15:01.956Z,85.97
2018-03-04T01:17:28.318Z,91.40
2018-03-04T01:19:55.431Z,96.10
2018-03-04T01:22:21.808Z,98.12
2018-03-04T01:24:48.906Z,89.15
2018-03-04T01:27:15.327Z,95.22
2018-03-04T01:29:41.723Z,91.00
2018-03-04T01:32:08.083Z,90.72
2018-03-04T01:34:34.744Z,102.00
2018-03-04T01:37:01.169Z,95.80
2018-03-04T01:39:27.542Z,98.07
2018-03-04T01:41:54.636Z,95.38
2018-03-04T01:44:21.003Z,91.22
2018-03-04T01:46:47.366Z,89.85
2018-03-04T01:49:14.466Z,91.68
2018-03-04T01:51:51.026Z,92.00
2018-03-04T01:54:17.398Z,93.25
2018-03-04T01:56:44.496Z,115.05
2018-03-04T01:59:10.843Z,92.10
2018-03-04T02:01:37.249Z,87.80
2018-03-04T02:04:03.635Z,91.72
2018-03-04T02:06:29.990Z,87.30
2018-03-04T02:08:56.355Z,97.78
2018-03-04T02:11:22.758Z,85.45
2018-03-04T02:13:49.116Z,97.45
2018-03-04T02:16:15.491Z,93.90
2018-03-04T02:18:41.844Z,94.15
2018-03-04T02:21:08.207Z,102.68
2018-03-04T02:23:34.570Z,91.53
2018-03-04T02:26:00.928Z,101.53
2018-03-04T02:28:28.017Z,86.93
2018-03-04T02:30:54.444Z,112.22
2018-03-04T02:33:20.831Z,87.25
2018-03-04T02:35:47.922Z,98.18
2018-03-04T02:38:14.284Z,107.12
2018-03-04T02:40:40.644Z,98.37
2018-03-04T02:43:07.746Z,101.62
2018-03-04T02:45:34.100Z,98.05
2018-03-04T02:48:00.471Z,105.93
2018-03-04T02:50:26.859Z,96.55
2018-03-04T02:52:53.227Z,100.20
2018-03-04T02:55:20.588Z,107.57
2018-03-04T02:57:46.975Z,101.57
2018-03-04T03:00:13.376Z,100.12
2018-03-04T03:02:39.746Z,104.12
2018-03-04T03:05:06.142Z,105.25
2018-03-04T03:07:32.505Z,100.80
2018-03-04T03:09:58.901Z,91.25
2018-03-04T03:12:25.390Z,105.32
2018-03-04T03:14:52.527Z,111.28
2018-03-04T03:17:18.892Z,107.53
2018-03-04T03:19:45.349Z,99.72
2018-03-04T03:22:11.699Z,97.32
2018-03-04T03:24:38.055Z,93.55
2018-03-04T03:27:04.427Z,95.47
2018-03-04T03:29:30.786Z,83.62
2018-03-04T03:31:57.151Z,89.97
2018-03-04T03:34:23.508Z,84.10
2018-03-04T03:36:49.857Z,92.30
2018-03-04T03:39:16.228Z,88.50
2018-03-04T03:41:42.595Z,94.13
2018-03-04T03:44:09.036Z,102.32
2018-03-04T03:46:35.401Z,100.47
2018-03-04T03:49:01.759Z,83.90
2018-03-04T03:51:28.144Z,93.82
2018-03-04T03:53:55.243Z,95.47
2018-03-04T03:56:21.608Z,88.53
2018-03-04T03:58:48.002Z,95.78
2018-03-04T04:01:14.375Z,85.50
2018-03-04T04:03:40.735Z,94.80
2018-03-04T04:06:07.100Z,97.12
2018-03-04T04:08:33.471Z,89.07
2018-03-04T04:11:20.416Z,91.95
2018-03-04T04:13:46.776Z,100.80
2018-03-04T04:16:13.355Z,94.22
2018-03-04T04:18:39.735Z,84.30
2018-03-04T04:21:06.135Z,101.82
2018-03-04T04:23:32.486Z,106.80
2018-03-04T04:25:58.854Z,98.75
2018-03-04T04:28:25.963Z,100.70
2018-03-04T04:30:52.351Z,96.50
2018-03-04T04:33:18.711Z,89.35
2018-03-04T04:35:45.070Z,94.70
2018-03-04T04:38:11.491Z,83.00
2018-03-04T04:40:37.852Z,91.68
2018-03-04T04:43:04.268Z,90.35
2018-03-04T04:45:30.641Z,98.30
2018-03-04T04:47:56.980Z,80.75
2018-03-04T04:50:23.483Z,105.55
2018-03-04T04:52:50.604Z,81.03
2018-03-04T04:55:16.998Z,95.55
2018-03-04T04:57:43.407Z,93.32
2018-03-04T05:00:10.586Z,86.82
2018-03-04T05:02:36.939Z,90.62
2018-03-04T05:05:03.306Z,85.85
2018-03-04T05:07:30.410Z,93.40
2018-03-04T05:09:56.877Z,86.55
2018-03-04T05:12:23.240Z,96.53
2018-03-04T05:14:50.331Z,91.40
2018-03-04T05:17:16.696Z,92.43
2018-03-04T05:19:43.986Z,99.00
2018-03-04T05:22:10.360Z,94.15
2018-03-04T05:24:36.725Z,82.65
2018-03-04T05:27:03.874Z,84.93
2018-03-04T05:29:31.005Z,101.50
2018-03-04T05:31:57.435Z,107.35
2018-03-04T05:34:25.341Z,91.90
2018-03-04T05:36:51.662Z,90.22
2018-03-04T05:39:18.747Z,93.90
2018-03-04T05:41:45.104Z,123.60
2018-03-04T05:44:11.462Z,103.38
2018-03-04T05:46:38.582Z,100.00
2018-03-04T05:49:04.960Z,94.37
2018-03-04T05:51:32.138Z,82.95
2018-03-04T05:53:58.511Z,95.93
2018-03-04T05:56:25.619Z,94.20
2018-03-04T05:58:51.992Z,97.22
2018-03-04T06:01:19.123Z,255.77
2018-03-04T06:03:45.512Z,159.55
2018-03-04T06:06:11.891Z,140.02
2018-03-04T06:08:38.256Z,195.80
2018-03-04T06:11:04.618Z,112.35
2018-03-04T06:13:30.983Z,109.90
2018-03-04T06:15:58.842Z,133.23
2018-03-04T06:18:25.192Z,120.62
2018-03-04T06:20:51.546Z,116.10
2018-03-04T06:23:17.911Z,131.77
2018-03-04T06:25:44.266Z,94.10
2018-03-04T06:28:10.650Z,87.60
2018-03-04T06:30:37.007Z,89.00
2018-03-04T06:33:03.367Z,87.70
2018-03-04T06:35:29.794Z,98.37
2018-03-04T06:37:56.912Z,95.72
2018-03-04T06:40:23.470Z,96.55
2018-03-04T06:42:49.837Z,106.37
2018-03-04T06:45:16.982Z,102.22
2018-03-04T06:47:43.331Z,107.12
2018-03-04T06:50:09.691Z,103.95
2018-03-04T06:52:36.043Z,94.65
2018-03-04T06:55:02.423Z,94.13
2018-03-04T06:57:28.791Z,94.25
2018-03-04T06:59:55.164Z,94.25
2018-03-04T07:02:21.552Z,100.18
2018-03-04T07:04:47.935Z,111.82
2018-03-04T07:07:15.051Z,109.32
2018-03-04T07:09:42.964Z,113.62
2018-03-04T07:12:09.360Z,112.22
2018-03-04T07:14:35.783Z,99.05
2018-03-04T07:17:02.159Z,101.68
2018-03-04T07:19:29.234Z,100.93
2018-03-04T07:21:55.582Z,105.32
2018-03-04T07:24:21.950Z,114.70
2018-03-04T07:26:49.062Z,112.60
2018-03-04T07:29:15.443Z,108.85
2018-03-04T07:31:42.550Z,118.45
2018-03-04T07:34:08.951Z,118.15
2018-03-04T07:36:35.472Z,95.25
2018-03-04T07:39:01.840Z,110.03
2018-03-04T07:41:28.226Z,99.87
2018-03-04T07:43:54.580Z,102.50
2018-03-04T07:46:20.933Z,112.80
2018-03-04T07:48:47.351Z,101.82
2018-03-04T07:51:13.721Z,95.93
2018-03-04T07:53:40.094Z,107.28
2018-03-04T07:56:06.447Z,97.12
2018-03-04T07:58:32.803Z,100.30
2018-03-04T08:00:59.915Z,113.22
2018-03-04T08:03:26.275Z,112.53
2018-03-04T08:05:52.638Z,86.65
2018-03-04T08:08:19.736Z,92.43
2018-03-04T08:10:46.164Z,83.68
2018-03-04T08:13:12.567Z,91.40
2018-03-04T08:15:38.962Z,81.07
2018-03-04T08:18:06.804Z,86.03
2018-03-04T08:20:33.154Z,86.37
2018-03-04T08:22:59.510Z,124.32
2018-03-04T08:25:32.586Z,93.97
2018-03-04T08:28:11.958Z,91.22
2018-03-04T08:30:38.344Z,93.12
2018-03-04T08:33:04.713Z,87.62
2018-03-04T08:35:31.082Z,131.00
2018-03-04T08:37:57.511Z,112.57
2018-03-04T08:40:23.881Z,97.18
2018-03-04T08:42:50.247Z,90.57
2018-03-04T08:45:16.623Z,93.90
2018-03-04T08:47:43.002Z,96.35
2018-03-04T08:50:09.359Z,107.65
2018-03-04T08:52:35.702Z,82.18
2018-03-04T08:55:02.067Z,100.87
2018-03-04T08:57:28.426Z,82.68
2018-03-04T08:59:54.794Z,88.30
2018-03-04T09:02:21.166Z,94.18
2018-03-04T09:04:47.524Z,89.37
2018-03-04T09:07:13.924Z,91.07
2018-03-04T09:09:40.325Z,100.55
2018-03-04T09:12:06.688Z,95.70
2018-03-04T09:14:33.076Z,91.40
2018-03-04T09:16:59.460Z,86.60
2018-03-04T09:19:26.562Z,98.12
2018-03-04T09:21:52.928Z,93.87
2018-03-04T09:24:19.376Z,85.25
2018-03-04T09:26:45.772Z,91.07
2018-03-04T09:29:12.315Z,90.07
2018-03-04T09:31:38.679Z,101.62
2018-03-04T09:34:05.782Z,95.55
2018-03-04T09:36:32.199Z,107.95
2018-03-04T09:38:58.559Z,93.53
2018-03-04T09:41:25.055Z,107.05
2018-03-04T09:43:51.427Z,87.72
2018-03-04T09:46:17.798Z,100.20
2018-03-04T09:48:44.159Z,93.07
2018-03-04T09:51:10.621Z,104.18
2018-03-04T09:53:36.992Z,100.15
2018-03-04T09:56:03.375Z,94.80
2018-03-04T09:58:29.759Z,99.55
2018-03-04T10:00:56.156Z,96.78
2018-03-04T10:03:22.558Z,96.82
2018-03-04T10:05:48.946Z,99.85
2018-03-04T10:08:15.338Z,89.15
2018-03-04T10:10:41.727Z,89.15
2018-03-04T10:13:08.119Z,117.67
2018-03-04T10:15:35.238Z,92.53
2018-03-04T10:18:01.608Z,100.40
2018-03-04T10:20:28.733Z,109.57
2018-03-04T10:22:55.094Z,103.63
2018-03-04T10:25:22.234Z,105.63
2018-03-04T10:27:49.359Z,97.13
2018-03-04T10:30:15.726Z,108.27
2018-03-04T10:32:42.815Z,96.47
2018-03-04T10:35:09.198Z,103.63
2018-03-04T10:37:36.292Z,103.70
2018-03-04T10:40:02.750Z,104.93
2018-03-04T10:42:29.128Z,107.27
2018-03-04T10:44:55.547Z,110.30
2018-03-04T10:47:22.829Z,107.37
2018-03-04T10:49:49.216Z,92.57
2018-03-04T10:52:15.609Z,100.93
2018-03-04T10:54:42.175Z,91.87
2018-03-04T10:57:08.547Z,106.60
2018-03-04T10:59:35.674Z,98.57
2018-03-04T11:02:03.737Z,93.07
2018-03-04T11:04:30.137Z,98.37
2018-03-04T11:06:56.540Z,108.57
2018-03-04T11:09:22.967Z,103.23
2018-03-04T11:11:49.341Z,96.97
2018-03-04T11:14:15.723Z,92.10
2018-03-04T11:16:42.846Z,93.47
2018-03-04T11:19:09.259Z,86.80
2018-03-04T11:21:35.622Z,97.63
2018-03-04T11:24:02.711Z,103.40
2018-03-04T11:26:29.086Z,245.90
2018-03-04T11:28:55.455Z,147.63
2018-03-04T11:31:22.591Z,213.03
2018-03-04T11:33:49.994Z,105.33
2018-03-04T11:36:16.366Z,91.50
2018-03-04T11:38:43.463Z,84.07
2018-03-04T11:41:09.874Z,92.33
2018-03-04T11:43:36.216Z,83.80
2018-03-04T11:46:02.594Z,83.47
2018-03-04T11:48:29.031Z,83.03
2018-03-04T11:50:55.459Z,82.87
2018-03-04T11:53:21.827Z,95.13
2018-03-04T11:55:48.192Z,93.77
2018-03-04T11:58:14.793Z,104.90
2018-03-04T12:00:41.164Z,132.70
2018-03-04T12:03:07.522Z,112.73
2018-03-04T12:05:33.878Z,88.77
2018-03-04T12:08:01.008Z,113.83
2018-03-04T12:10:28.115Z,106.43
2018-03-04T12:12:54.480Z,95.93
2018-03-04T12:15:20.864Z,88.47
2018-03-04T12:17:47.206Z,98.50
2018-03-04T12:20:13.571Z,90.43
2018-03-04T12:22:39.919Z,103.20
2018-03-04T12:25:06.284Z,87.20
2018-03-04T12:27:32.638Z,103.53
2018-03-04T12:29:59.016Z,100.13
2018-03-04T12:32:26.130Z,101.23
2018-03-04T12:34:52.670Z,94.70
2018-03-04T12:37:19.040Z,89.70
2018-03-04T12:39:45.407Z,87.83
2018-03-04T12:42:11.788Z,106.67
2018-03-04T12:44:38.148Z,95.23
2018-03-04T12:47:05.366Z,102.27
2018-03-04T12:49:31.844Z,101.73
2018-03-04T12:51:58.285Z,88.80
2018-03-04T12:54:24.706Z,85.67
2018-03-04T12:56:51.023Z,92.57
2018-03-04T12:59:18.202Z,81.73
2018-03-04T13:01:44.583Z,91.20
2018-03-04T13:04:11.711Z,90.60
2018-03-04T13:06:38.079Z,85.00
2018-03-04T13:09:04.526Z,89.80
2018-03-04T13:11:30.891Z,84.93
2018-03-04T13:13:57.287Z,80.20
2018-03-04T13:16:23.653Z,81.63
2018-03-04T13:18:50.038Z,115.17
2018-03-04T13:21:17.220Z,108.30
2018-03-04T13:23:43.599Z,96.83
2018-03-04T13:26:10.020Z,96.93
2018-03-04T13:28:36.407Z,83.33
2018-03-04T13:31:02.805Z,84.17
2018-03-04T13:33:29.239Z,82.13
2018-03-04T13:35:55.641Z,102.53
2018-03-04T13:38:22.231Z,86.77
2018-03-04T13:40:48.612Z,80.20
2018-03-04T13:43:14.969Z,78.80
2018-03-04T13:45:42.074Z,92.30
2018-03-04T13:48:08.430Z,97.07
2018-03-04T13:50:34.833Z,83.70
2018-03-04T13:53:01.212Z,110.13
2018-03-04T13:55:28.446Z,96.90
2018-03-04T13:57:55.575Z,93.47
2018-03-04T14:00:21.974Z,100.30
2018-03-04T14:02:48.383Z,106.87
2018-03-04T14:05:14.783Z,92.53
2018-03-04T14:07:41.204Z,111.47
2018-03-04T14:10:07.593Z,130.23
2018-03-04T14:12:34.695Z,110.83
2018-03-04T14:15:01.127Z,110.57
2018-03-04T14:17:27.549Z,90.87
2018-03-04T14:19:54.011Z,107.90
2018-03-04T14:22:20.400Z,110.30
2018-03-04T14:24:46.766Z,127.07
2018-03-04T14:27:13.191Z,100.80
2018-03-04T14:29:39.611Z,120.43
2018-03-04T14:32:06.044Z,110.63
2018-03-04T14:34:32.444Z,102.23
2018-03-04T14:36:58.868Z,101.93
2018-03-04T14:39:25.334Z,116.03
2018-03-04T14:41:51.726Z,106.83
2018-03-04T14:44:18.174Z,113.30
2018-03-04T14:46:44.574Z,104.80
2018-03-04T14:49:11.704Z,109.00
2018-03-04T14:51:38.129Z,117.73
2018-03-04T14:54:04.570Z,104.17
2018-03-04T14:56:31.015Z,105.53
2018-03-04T14:58:57.388Z,119.03
2018-03-04T15:01:23.917Z,112.77
2018-03-04T15:03:50.525Z,114.67
2018-03-04T15:06:17.664Z,103.47
2018-03-04T15:08:44.035Z,114.17
2018-03-04T15:11:10.429Z,117.93
2018-03-04T15:13:36.794Z,108.93
2018-03-04T15:16:03.938Z,114.60
2018-03-04T15:18:31.081Z,105.87
2018-03-04T15:20:57.463Z,108.47
2018-03-04T15:23:23.844Z,113.03
2018-03-04T15:25:50.996Z,108.03
2018-03-04T15:28:18.143Z,104.67
2018-03-04T15:30:45.301Z,111.10
2018-03-04T15:33:11.742Z,97.60
2018-03-04T15:35:38.135Z,111.57
2018-03-04T15:38:04.533Z,119.13
2018-03-04T15:40:30.902Z,120.73
2018-03-04T15:42:57.270Z,124.10
2018-03-04T15:45:23.669Z,124.13
2018-03-04T15:47:50.063Z,132.80
2018-03-04T15:50:16.536Z,107.23
2018-03-04T15:52:42.919Z,128.33
2018-03-04T15:55:09.294Z,125.10
2018-03-04T15:57:35.674Z,124.67
2018-03-04T16:00:02.162Z,186.20
2018-03-04T16:02:28.527Z,132.13
2018-03-04T16:04:54.960Z,108.37
2018-03-04T16:07:21.335Z,135.10
2018-03-04T16:09:47.705Z,122.47
2018-03-04T16:12:14.798Z,119.23
2018-03-04T16:14:41.178Z,130.70
2018-03-04T16:17:08.292Z,111.90
2018-03-04T16:19:34.654Z,153.00
2018-03-04T16:22:01.027Z,151.33
2018-03-04T16:24:27.478Z,203.60
2018-03-04T16:26:53.930Z,163.70
2018-03-04T16:29:20.294Z,149.83
2018-03-04T16:31:47.464Z,124.70
2018-03-04T16:34:13.867Z,122.60
2018-03-04T16:36:42.015Z,124.87
2018-03-04T16:39:08.386Z,115.93
2018-03-04T16:41:35.494Z,122.03
2018-03-04T16:44:02.053Z,121.00
2018-03-04T16:46:28.439Z,120.03
2018-03-04T16:48:54.803Z,119.70
2018-03-04T16:51:21.203Z,125.40
2018-03-04T16:53:47.951Z,114.00
2018-03-04T16:56:14.358Z,116.53
2018-03-04T16:58:40.778Z,113.10
2018-03-04T17:01:07.179Z,126.07
2018-03-04T17:03:33.560Z,124.05
2018-03-04T17:05:59.965Z,137.77
2018-03-04T17:08:26.363Z,112.93
2018-03-04T17:10:52.742Z,126.45
2018-03-04T17:13:19.866Z,133.07
2018-03-04T17:15:46.976Z,114.78
2018-03-04T17:18:13.649Z,131.95
2018-03-04T17:20:40.791Z,123.78
2018-03-04T17:23:07.144Z,120.62
2018-03-04T17:25:34.291Z,113.17
2018-03-04T17:28:00.656Z,117.00
2018-03-04T17:30:27.072Z,108.77
2018-03-04T17:32:53.428Z,120.95
2018-03-04T17:35:19.794Z,123.93
2018-03-04T17:37:46.161Z,123.68
2018-03-04T17:40:12.526Z,131.57
2018-03-04T17:42:39.021Z,163.85
2018-03-04T17:45:06.130Z,144.10
2018-03-04T17:47:32.522Z,134.00
2018-03-04T17:49:58.882Z,111.80
2018-03-04T17:52:25.291Z,120.90
2018-03-04T17:54:51.663Z,123.13
2018-03-04T17:57:18.026Z,131.68
2018-03-04T17:59:45.149Z,120.72
2018-03-04T18:02:12.264Z,139.82
2018-03-04T18:04:38.612Z,167.32
2018-03-04T18:07:05.000Z,116.22
2018-03-04T18:09:31.356Z,122.45
2018-03-04T18:11:57.728Z,125.25
2018-03-04T18:14:24.123Z,119.80
2018-03-04T18:16:50.471Z,127.62
2018-03-04T18:19:16.836Z,123.75
2018-03-04T18:21:43.959Z,118.20
2018-03-04T18:24:10.341Z,126.93
2018-03-04T18:26:36.695Z,127.15
2018-03-04T18:29:03.077Z,123.53
2018-03-04T18:31:30.224Z,123.07
2018-03-04T18:33:57.668Z,123.20
2018-03-04T18:36:24.792Z,121.03
2018-03-04T18:38:51.158Z,124.68
2018-03-04T18:41:18.279Z,130.05
2018-03-04T18:43:44.746Z,134.95
2018-03-04T18:46:11.072Z,133.90
2018-03-04T18:48:37.536Z,129.30
2018-03-04T18:51:03.922Z,120.87
2018-03-04T18:53:31.046Z,129.12
2018-03-04T18:55:57.483Z,129.82
2018-03-04T18:58:23.858Z,132.82
2018-03-04T19:00:51.002Z,120.18
2018-03-04T19:03:18.102Z,125.22
2018-03-04T19:05:44.524Z,119.60
2018-03-04T19:08:10.928Z,131.73
2018-03-04T19:10:38.059Z,132.43
2018-03-04T19:13:04.503Z,145.60
2018-03-04T19:15:31.638Z,129.32
2018-03-04T19:17:58.026Z,145.12
2018-03-04T19:20:24.410Z,140.85
2018-03-04T19:22:51.559Z,131.73
2018-03-04T19:25:18.728Z,131.68
2018-03-04T19:27:45.122Z,127.18
2018-03-04T19:30:12.310Z,121.18
2018-03-04T19:32:38.699Z,138.35
2018-03-04T19:35:05.129Z,124.30
2018-03-04T19:37:31.546Z,136.15
2018-03-04T19:39:57.942Z,139.95
2018-03-04T19:42:24.355Z,131.37
2018-03-04T19:44:51.496Z,133.35
2018-03-04T19:47:18.650Z,136.35
2018-03-04T19:49:45.770Z,138.18
2018-03-04T19:52:17.947Z,134.15
2018-03-04T19:54:44.857Z,132.35
2018-03-04T19:57:11.305Z,137.55
2018-03-04T19:59:37.673Z,144.18
2018-03-04T20:02:04.863Z,138.15
2018-03-04T20:04:31.261Z,135.75
2018-03-04T20:06:58.450Z,134.82
2018-03-04T20:09:25.523Z,148.82
2018-03-04T20:11:51.882Z,153.32
2018-03-04T20:14:18.235Z,140.23
2018-03-04T20:16:45.322Z,150.50
2018-03-04T20:19:11.678Z,144.70
2018-03-04T20:21:38.065Z,159.35
2018-03-04T20:24:04.467Z,143.25
2018-03-04T20:26:31.594Z,167.43
2018-03-04T20:28:57.972Z,150.60
2018-03-04T20:31:24.327Z,146.55
2018-03-04T20:33:50.704Z,165.18
2018-03-04T20:36:17.820Z,148.62
2018-03-04T20:38:44.198Z,151.35
2018-03-04T20:41:10.563Z,153.77
2018-03-04T20:43:36.957Z,154.93
2018-03-04T20:46:03.330Z,153.98
2018-03-04T20:48:29.702Z,170.30
2018-03-04T20:50:56.825Z,157.00
2018-03-04T20:53:23.212Z,164.52
2018-03-04T20:55:49.575Z,173.73
2018-03-04T20:58:15.944Z,177.30
2018-03-04T21:00:42.320Z,167.43
2018-03-04T21:03:08.797Z,165.45
2018-03-04T21:05:35.189Z,169.07
2018-03-04T21:08:01.612Z,176.20
2018-03-04T21:10:28.008Z,175.23
2018-03-04T21:12:54.371Z,180.23
2018-03-04T21:15:20.725Z,175.87
2018-03-04T21:17:47.096Z,175.45
2018-03-04T21:20:13.463Z,173.10
2018-03-04T21:22:39.820Z,181.00
2018-03-04T21:25:06.203Z,189.85
2018-03-04T21:27:33.364Z,188.82
2018-03-04T21:30:00.450Z,183.73
2018-03-04T21:32:26.822Z,200.87
2018-03-04T21:34:53.212Z,187.75
2018-03-04T21:37:19.582Z,191.15
2018-03-04T21:39:45.967Z,182.45
2018-03-04T21:42:12.391Z,200.30
2018-03-04T21:44:39.497Z,189.73
2018-03-04T21:47:05.859Z,201.48
2018-03-04T21:49:32.256Z,214.25
2018-03-04T21:52:00.188Z,219.80
2018-03-04T21:54:27.308Z,198.30
2018-03-04T21:56:53.745Z,212.57
2018-03-04T21:59:20.169Z,216.82
2018-03-04T22:01:47.288Z,205.55
2018-03-04T22:04:13.650Z,223.70
2018-03-04T22:06:40.025Z,221.15
2018-03-04T22:09:06.473Z,218.73
2018-03-04T22:11:33.591Z,226.82
2018-03-04T22:13:59.966Z,203.05
2018-03-04T22:16:26.362Z,227.35
2018-03-04T22:18:52.778Z,214.68
2018-03-04T22:21:19.169Z,216.15
2018-03-04T22:23:46.282Z,228.75
2018-03-04T22:26:12.644Z,212.27
2018-03-04T22:28:39.018Z,213.77
2018-03-04T22:31:05.399Z,227.02
2018-03-04T22:33:31.773Z,212.82
2018-03-04T22:35:58.145Z,223.27
2018-03-04T22:38:24.546Z,216.10
2018-03-04T22:40:50.960Z,206.40
2018-03-04T22:43:17.349Z,234.43
2018-03-04T22:45:43.723Z,227.87
2018-03-04T22:48:10.082Z,228.18
2018-03-04T22:50:36.453Z,207.12
2018-03-04T22:53:02.838Z,203.23
2018-03-04T22:55:29.227Z,197.60
2018-03-04T22:57:56.327Z,230.12
2018-03-04T23:00:22.694Z,203.30
2018-03-04T23:02:50.573Z,212.35
2018-03-04T23:05:16.932Z,199.87
2018-03-04T23:07:43.303Z,198.90
2018-03-04T23:10:09.714Z,196.32
2018-03-04T23:12:36.092Z,182.43
2018-03-04T23:15:02.555Z,233.90
2018-03-04T23:17:28.932Z,199.73
2018-03-04T23:19:55.362Z,221.45
2018-03-04T23:22:21.967Z,196.60
2018-03-04T23:24:48.380Z,210.82
2018-03-04T23:27:15.483Z,186.93
2018-03-04T23:29:41.839Z,202.05
2018-03-04T23:32:08.225Z,197.37
2018-03-04T23:34:34.587Z,188.25
2018-03-04T23:37:00.999Z,195.32
2018-03-04T23:39:27.380Z,203.35
2018-03-04T23:41:54.502Z,211.02
2018-03-04T23:44:20.878Z,201.40
2018-03-04T23:46:47.249Z,193.85
2018-03-04T23:49:13.622Z,186.30
2018-03-04T23:51:41.212Z,181.87
2018-03-04T23:54:07.585Z,196.82
2018-03-04T23:56:33.981Z,193.75
2018-03-04T23:59:00.371Z,192.48
